createdAt,value
2019-01-08T00:01:55.030Z,9.10
2019-01-08T00:04:44.585Z,8.20
2019-01-08T00:07:27.094Z,8.10
2019-01-08T00:10:09.223Z,11.33
2019-01-08T00:12:51.299Z,10.17
2019-01-08T00:15:31.901Z,9.53
2019-01-08T00:18:21.416Z,9.53
2019-01-08T00:21:10.984Z,9.73
2019-01-08T00:24:00.660Z,10.20
2019-01-08T00:26:43.019Z,9.40
2019-01-08T00:29:25.177Z,9.93
2019-01-08T00:32:07.179Z,10.40
2019-01-08T00:34:56.730Z,9.80
2019-01-08T00:37:46.244Z,11.37
2019-01-08T00:40:28.700Z,11.10
2019-01-08T00:43:10.492Z,12.97
2019-01-08T00:45:52.619Z,12.83
2019-01-08T00:48:34.547Z,12.57
2019-01-08T00:51:16.928Z,11.83
2019-01-08T00:53:59.406Z,10.50
2019-01-08T00:56:48.962Z,12.13
2019-01-08T00:59:31.272Z,10.90
2019-01-08T01:02:13.780Z,11.30
2019-01-08T01:04:55.857Z,11.00
2019-01-08T01:07:38.298Z,12.17
2019-01-08T01:10:27.802Z,13.23
2019-01-08T01:13:17.350Z,11.63
2019-01-08T01:16:06.908Z,12.87
2019-01-08T01:18:49.324Z,14.40
2019-01-08T01:21:29.967Z,14.07
2019-01-08T01:24:12.090Z,14.53
2019-01-08T01:27:01.600Z,13.47
2019-01-08T01:29:43.669Z,13.40
2019-01-08T01:32:25.748Z,13.30
2019-01-08T01:35:07.923Z,12.80
2019-01-08T01:37:50.245Z,11.97
2019-01-08T01:40:32.911Z,13.43
2019-01-08T01:43:15.433Z,16.13
2019-01-08T01:45:57.283Z,17.57
2019-01-08T01:48:39.603Z,13.60
2019-01-08T01:51:21.721Z,15.17
2019-01-08T01:54:03.683Z,17.03
2019-01-08T01:56:46.206Z,18.80
2019-01-08T01:59:28.551Z,18.60
2019-01-08T02:02:10.787Z,21.23
2019-01-08T02:04:54.491Z,18.63
2019-01-08T02:07:36.899Z,20.00
2019-01-08T02:10:19.286Z,20.20
2019-01-08T02:16:15.806Z,24.40
2019-01-08T02:19:01.376Z,23.53
2019-01-08T02:24:58.766Z,22.67
2019-01-08T02:27:41.410Z,27.53
2019-01-08T02:30:23.592Z,29.33
2019-01-08T02:33:32.152Z,29.00
2019-01-08T02:36:14.470Z,27.43
2019-01-08T02:41:55.885Z,28.23
2019-01-08T02:44:38.831Z,29.93
2019-01-08T02:47:20.697Z,28.93
2019-01-08T02:50:02.797Z,31.77
2019-01-08T02:52:45.006Z,24.40
2019-01-08T02:55:27.145Z,27.60
2019-01-08T02:58:09.450Z,23.73
2019-01-08T03:00:51.144Z,26.07
2019-01-08T03:03:32.867Z,21.73
2019-01-08T03:06:41.475Z,28.27
2019-01-08T03:09:24.010Z,28.70
2019-01-08T03:12:06.481Z,29.90
2019-01-08T03:14:49.125Z,32.27
2019-01-08T03:17:30.973Z,31.67
2019-01-08T03:20:13.495Z,29.43
2019-01-08T03:22:55.609Z,25.97
2019-01-08T03:25:38.800Z,26.67
2019-01-08T03:28:20.915Z,17.97
2019-01-08T03:31:03.088Z,27.07
2019-01-08T03:33:43.608Z,32.07
2019-01-08T03:36:26.019Z,28.40
2019-01-08T03:39:15.530Z,29.77
2019-01-08T03:41:58.057Z,28.27
2019-01-08T03:44:40.180Z,26.70
2019-01-08T03:47:29.736Z,20.87
2019-01-08T03:50:11.713Z,25.00
2019-01-08T03:52:52.256Z,25.27
2019-01-08T03:55:34.426Z,27.10
2019-01-08T03:58:23.905Z,24.23
2019-01-08T04:01:04.490Z,20.30
2019-01-08T04:03:46.904Z,14.53
2019-01-08T04:06:36.415Z,24.37
2019-01-08T04:09:18.854Z,20.50
2019-01-08T04:11:59.474Z,22.50
2019-01-08T04:14:41.821Z,24.07
2019-01-08T04:17:50.510Z,18.17
2019-01-08T04:20:31.052Z,14.37
2019-01-08T04:23:14.585Z,17.07
2019-01-08T04:26:04.119Z,15.53
2019-01-08T04:28:44.787Z,15.03
2019-01-08T04:31:53.413Z,10.20
2019-01-08T04:34:35.822Z,13.77
2019-01-08T04:37:44.422Z,16.17
2019-01-08T04:40:27.050Z,15.20
2019-01-08T04:43:10.624Z,18.50
2019-01-08T04:45:53.206Z,17.47
2019-01-08T04:48:35.454Z,17.77
2019-01-08T04:51:17.964Z,19.20
2019-01-08T04:53:59.842Z,17.50
2019-01-08T04:56:42.284Z,19.40
2019-01-08T04:59:24.443Z,16.03
2019-01-08T05:02:06.509Z,14.10
2019-01-08T05:04:48.503Z,13.10
2019-01-08T05:07:30.868Z,18.07
2019-01-08T05:10:39.514Z,18.33
2019-01-08T05:13:21.426Z,7.00
2019-01-08T05:16:03.615Z,20.47
2019-01-08T05:18:46.036Z,16.97
2019-01-08T05:21:28.650Z,21.97
2019-01-08T05:24:10.486Z,23.77
2019-01-08T05:27:00.011Z,14.50
2019-01-08T05:29:42.454Z,14.77
2019-01-08T05:32:24.664Z,20.57
2019-01-08T05:35:08.507Z,21.60
2019-01-08T05:37:50.915Z,13.80
2019-01-08T05:40:33.179Z,17.77
2019-01-08T05:43:15.411Z,10.50
2019-01-08T05:45:57.725Z,13.23
2019-01-08T05:48:40.319Z,5.50
2019-01-08T05:51:48.884Z,10.70
2019-01-08T05:54:31.357Z,4.97
2019-01-08T05:57:39.915Z,3.03
2019-01-08T06:00:20.626Z,7.00
2019-01-08T06:03:03.062Z,11.83
2019-01-08T06:06:11.478Z,12.23
2019-01-08T06:08:54.087Z,6.13
2019-01-08T06:11:36.062Z,9.20
2019-01-08T06:14:44.646Z,10.07
2019-01-08T06:17:34.193Z,7.07
2019-01-08T06:20:16.272Z,4.10
2019-01-08T06:22:56.804Z,7.90
2019-01-08T06:25:40.956Z,7.53
2019-01-08T06:28:30.448Z,2.57
2019-01-08T06:31:12.856Z,5.17
2019-01-08T06:33:55.238Z,4.33
2019-01-08T06:36:37.797Z,4.90
2019-01-08T06:39:20.131Z,3.70
2019-01-08T06:42:02.101Z,5.43
2019-01-08T06:47:58.584Z,3.97
2019-01-08T06:50:40.899Z,3.70
2019-01-08T06:53:23.020Z,3.30
2019-01-08T06:56:05.975Z,3.33
2019-01-08T07:01:49.508Z,2.53
2019-01-08T07:04:31.667Z,4.63
2019-01-08T07:07:13.925Z,2.03
2019-01-08T07:13:17.994Z,1.67
2019-01-08T07:15:59.966Z,3.03
2019-01-08T07:18:41.872Z,1.50
2019-01-08T07:21:26.664Z,3.27
2019-01-08T07:24:09.276Z,1.60
2019-01-08T07:26:51.159Z,0.77
2019-01-08T07:29:33.283Z,1.33
2019-01-08T07:32:13.512Z,1.73
2019-01-08T07:34:55.814Z,2.60
2019-01-08T07:38:04.219Z,2.07
2019-01-08T07:40:45.967Z,1.30
2019-01-08T07:43:28.286Z,2.10
2019-01-08T07:46:10.461Z,2.30
2019-01-08T07:48:52.837Z,1.33
2019-01-08T07:51:35.053Z,1.90
2019-01-08T07:54:43.627Z,0.80
2019-01-08T07:57:26.210Z,1.90
2019-01-08T08:00:15.713Z,0.90
2019-01-08T08:03:24.173Z,0.93
2019-01-08T08:06:13.774Z,1.27
2019-01-08T08:09:22.352Z,1.70
2019-01-08T08:12:04.325Z,0.83
2019-01-08T08:14:48.669Z,1.50
2019-01-08T08:17:57.257Z,2.67
2019-01-08T08:20:39.856Z,1.30
2019-01-08T08:23:48.277Z,1.10
2019-01-08T08:26:32.393Z,2.67
2019-01-08T08:29:14.767Z,0.67
2019-01-08T08:31:57.084Z,1.17
2019-01-08T08:34:39.369Z,1.77
2019-01-08T08:37:21.572Z,1.93
2019-01-08T08:40:03.636Z,2.13
2019-01-08T08:42:45.677Z,2.43
2019-01-08T08:45:27.877Z,2.23
2019-01-08T08:48:10.142Z,1.80
2019-01-08T08:50:52.143Z,1.73
2019-01-08T08:53:34.257Z,2.83
2019-01-08T08:56:16.614Z,3.73
2019-01-08T08:58:59.332Z,3.43
2019-01-08T09:01:41.945Z,3.87
2019-01-08T09:04:24.020Z,3.60
2019-01-08T09:07:06.412Z,4.63
2019-01-08T09:09:48.764Z,3.07
2019-01-08T09:12:30.668Z,1.70
2019-01-08T09:15:16.413Z,2.03
2019-01-08T09:17:59.019Z,3.40
2019-01-08T09:20:41.319Z,3.37
2019-01-08T09:23:23.261Z,2.97
2019-01-08T09:26:03.963Z,3.63
2019-01-08T09:28:46.281Z,3.83
2019-01-08T09:31:35.880Z,3.23
2019-01-08T09:34:20.087Z,5.77
2019-01-08T09:37:28.414Z,4.10
2019-01-08T09:40:10.512Z,8.47
2019-01-08T09:42:52.633Z,4.57
2019-01-08T09:45:52.901Z,7.27
2019-01-08T09:48:42.447Z,7.30
2019-01-08T09:51:24.843Z,6.47
2019-01-08T09:54:14.406Z,6.67
2019-01-08T09:57:22.976Z,9.93
2019-01-08T10:00:05.100Z,5.87
2019-01-08T10:02:47.688Z,7.10
2019-01-08T10:05:30.038Z,6.37
2019-01-08T10:08:12.547Z,5.70
2019-01-08T10:10:54.880Z,4.20
2019-01-08T10:13:36.793Z,5.37
2019-01-08T10:16:20.884Z,6.57
2019-01-08T10:19:03.087Z,5.73
2019-01-08T10:21:45.332Z,3.77
2019-01-08T10:24:27.713Z,4.93
2019-01-08T10:27:10.220Z,5.63
2019-01-08T10:29:52.047Z,5.07
2019-01-08T10:32:41.677Z,6.67
2019-01-08T10:35:24.221Z,3.97
2019-01-08T10:38:05.991Z,4.40
2019-01-08T10:40:48.412Z,6.80
2019-01-08T10:43:30.390Z,3.37
2019-01-08T10:46:12.616Z,4.83
2019-01-08T10:48:54.818Z,4.47
2019-01-08T10:51:36.818Z,6.70
2019-01-08T10:54:19.199Z,5.60
2019-01-08T10:57:01.568Z,3.60
2019-01-08T11:00:10.351Z,4.47
2019-01-08T11:02:50.788Z,5.80
2019-01-08T11:05:33.139Z,3.80
2019-01-08T11:08:22.627Z,4.47
2019-01-08T11:11:04.860Z,5.50
2019-01-08T11:13:46.806Z,5.70
2019-01-08T11:16:28.620Z,9.20
2019-01-08T11:19:10.533Z,6.27
2019-01-08T11:21:52.719Z,10.67
2019-01-08T11:24:35.094Z,10.57
2019-01-08T11:27:17.403Z,8.13
2019-01-08T11:29:59.906Z,10.83
2019-01-08T11:32:41.685Z,7.00
2019-01-08T11:35:23.797Z,7.17
2019-01-08T11:38:05.907Z,6.57
2019-01-08T11:40:48.058Z,4.73
2019-01-08T11:43:37.631Z,3.20
2019-01-08T11:46:27.189Z,9.00
2019-01-08T11:52:17.990Z,5.77
2019-01-08T11:55:03.068Z,6.27
2019-01-08T11:58:02.560Z,5.07
2019-01-08T12:00:44.397Z,7.27
2019-01-08T12:03:26.426Z,4.50
2019-01-08T12:06:09.839Z,4.57
2019-01-08T12:08:52.103Z,7.77
2019-01-08T12:11:32.539Z,5.67
2019-01-08T12:14:14.867Z,7.27
2019-01-08T12:17:04.446Z,7.20
2019-01-08T12:19:46.262Z,8.20
2019-01-08T12:22:28.548Z,4.00
2019-01-08T12:25:10.650Z,3.97
2019-01-08T12:27:53.083Z,4.20
2019-01-08T12:30:33.430Z,5.00
2019-01-08T12:33:42.013Z,5.00
2019-01-08T12:36:23.712Z,4.20
2019-01-08T12:39:07.092Z,3.07
2019-01-08T12:41:49.428Z,3.10
2019-01-08T12:44:31.492Z,4.07
2019-01-08T12:47:13.676Z,3.00
2019-01-08T12:49:55.999Z,2.63
2019-01-08T12:52:38.335Z,3.50
2019-01-08T12:55:20.624Z,3.63
2019-01-08T12:58:03.050Z,3.23
2019-01-08T13:00:45.125Z,4.20
2019-01-08T13:03:27.404Z,4.20
2019-01-08T13:06:08.029Z,4.23
2019-01-08T13:08:53.456Z,1.93
2019-01-08T13:11:42.989Z,3.30
2019-01-08T13:14:51.594Z,4.30
2019-01-08T13:17:33.727Z,2.37
2019-01-08T13:20:42.284Z,1.73
2019-01-08T13:23:24.327Z,2.30
2019-01-08T13:26:06.571Z,2.97
2019-01-08T13:28:48.890Z,2.30
2019-01-08T13:31:29.574Z,2.33
2019-01-08T13:34:11.439Z,3.23
2019-01-08T13:36:53.353Z,2.63
2019-01-08T13:39:42.914Z,2.03
2019-01-08T13:42:25.336Z,1.27
2019-01-08T13:45:07.578Z,1.00
2019-01-08T13:47:50.267Z,0.80
2019-01-08T13:50:32.786Z,1.50
2019-01-08T13:53:14.965Z,0.93
2019-01-08T13:55:57.211Z,2.20
2019-01-08T13:58:39.452Z,0.87
2019-01-08T14:01:21.494Z,1.30
2019-01-08T14:04:03.712Z,1.33
2019-01-08T14:06:45.994Z,1.70
2019-01-08T14:09:27.836Z,3.53
2019-01-08T14:12:10.015Z,1.00
2019-01-08T14:14:52.261Z,1.57
2019-01-08T14:17:34.521Z,0.87
2019-01-08T14:20:16.881Z,1.77
2019-01-08T14:22:59.261Z,1.10
2019-01-08T14:26:07.847Z,1.67
2019-01-08T14:28:49.595Z,2.67
2019-01-08T14:31:32.129Z,2.13
2019-01-08T14:34:13.988Z,1.70
2019-01-08T14:36:55.767Z,1.30
2019-01-08T14:39:37.693Z,1.50
2019-01-08T14:42:18.349Z,1.00
2019-01-08T14:45:00.813Z,1.50
2019-01-08T14:47:50.400Z,1.70
2019-01-08T14:50:32.277Z,2.53
2019-01-08T14:53:14.313Z,0.70
2019-01-08T14:55:56.235Z,2.57
2019-01-08T14:58:38.413Z,3.87
2019-01-08T15:01:20.130Z,1.03
2019-01-08T15:04:02.320Z,1.37
2019-01-08T15:06:44.368Z,0.70
2019-01-08T15:09:26.492Z,2.10
2019-01-08T15:12:08.297Z,1.67
2019-01-08T15:14:50.673Z,1.00
2019-01-08T15:17:32.984Z,3.27
2019-01-08T15:20:15.228Z,2.00
2019-01-08T15:22:57.264Z,2.63
2019-01-08T15:25:39.715Z,0.97
2019-01-08T15:28:21.826Z,1.57
2019-01-08T15:31:04.704Z,5.77
2019-01-08T15:33:46.778Z,3.10
2019-01-08T15:36:29.023Z,1.37
2019-01-08T15:39:12.305Z,1.47
2019-01-08T15:41:54.499Z,1.37
2019-01-08T15:44:36.710Z,1.40
2019-01-08T15:47:19.267Z,1.43
2019-01-08T15:50:01.021Z,3.03
2019-01-08T15:52:43.297Z,1.73
2019-01-08T15:55:32.795Z,4.30
2019-01-08T15:58:15.222Z,1.47
2019-01-08T16:00:57.015Z,2.03
2019-01-08T16:03:39.325Z,2.50
2019-01-08T16:06:21.640Z,1.60
2019-01-08T16:09:04.345Z,1.60
2019-01-08T16:11:47.117Z,1.83
2019-01-08T16:14:29.322Z,1.67
2019-01-08T16:17:11.525Z,5.00
2019-01-08T16:19:52.157Z,1.20
2019-01-08T16:22:41.710Z,3.33
2019-01-08T16:25:23.917Z,2.40
2019-01-08T16:28:05.992Z,2.37
2019-01-08T16:30:46.244Z,1.93
2019-01-08T16:33:28.745Z,4.73
2019-01-08T16:36:18.369Z,2.83
2019-01-08T16:39:00.665Z,1.67
2019-01-08T16:41:42.377Z,2.47
2019-01-08T16:44:24.615Z,1.83
2019-01-08T16:47:07.668Z,2.77
2019-01-08T16:49:57.220Z,2.03
2019-01-08T16:52:39.672Z,3.30
2019-01-08T16:55:21.849Z,2.83
2019-01-08T16:58:11.470Z,2.33
2019-01-08T17:00:53.197Z,5.30
2019-01-08T17:03:35.481Z,3.93
2019-01-08T17:06:25.355Z,3.93
2019-01-08T17:09:07.896Z,3.20
2019-01-08T17:11:48.267Z,1.20
2019-01-08T17:14:30.537Z,3.00
2019-01-08T17:17:39.213Z,0.97
2019-01-08T17:20:20.572Z,4.23
2019-01-08T17:23:02.620Z,2.33
2019-01-08T17:26:11.546Z,3.07
2019-01-08T17:28:53.806Z,2.10
2019-01-08T17:32:02.409Z,3.40
2019-01-08T17:34:44.274Z,3.53
2019-01-08T17:37:26.175Z,3.20
2019-01-08T17:43:16.930Z,2.27
2019-01-08T17:45:59.784Z,1.80
2019-01-08T17:48:49.486Z,2.67
2019-01-08T17:55:08.948Z,2.03
2019-01-08T17:57:52.459Z,2.23
2019-01-08T18:00:34.482Z,2.43
2019-01-08T18:03:16.812Z,1.93
2019-01-08T18:06:25.450Z,4.37
2019-01-08T18:09:07.821Z,3.67
2019-01-08T18:12:16.455Z,2.73
2019-01-08T18:14:58.624Z,3.07
2019-01-08T18:17:40.725Z,1.67
2019-01-08T18:21:00.673Z,2.23
2019-01-08T18:23:43.354Z,2.37
2019-01-08T18:26:25.867Z,1.77
2019-01-08T18:29:08.074Z,3.37
2019-01-08T18:31:54.347Z,1.53
2019-01-08T18:34:37.440Z,2.33
2019-01-08T18:37:37.782Z,1.63
2019-01-08T18:43:23.253Z,1.63
2019-01-08T18:46:05.801Z,2.83
2019-01-08T18:49:15.133Z,1.50
2019-01-08T18:51:57.717Z,2.17
2019-01-08T18:54:40.737Z,3.40
2019-01-08T18:57:23.537Z,2.67
2019-01-08T19:00:06.255Z,2.27
2019-01-08T19:02:49.131Z,2.83
2019-01-08T19:09:25.798Z,1.70
2019-01-08T19:12:09.874Z,2.17
2019-01-08T19:14:52.006Z,2.13
2019-01-08T19:17:34.588Z,4.00
2019-01-08T19:27:36.327Z,3.00
2019-01-08T19:30:18.626Z,1.90
2019-01-08T19:33:02.313Z,1.57
2019-01-08T19:35:43.677Z,1.50
2019-01-08T19:38:26.537Z,2.90
2019-01-08T19:41:08.843Z,4.30
2019-01-08T19:43:52.335Z,2.57
2019-01-08T19:46:34.739Z,3.57
2019-01-08T19:49:16.508Z,2.00
2019-01-08T19:51:58.635Z,3.73
2019-01-08T19:54:41.151Z,2.80
2019-01-08T19:57:23.958Z,2.70
2019-01-08T20:00:08.243Z,2.73
2019-01-08T20:02:51.473Z,4.53
2019-01-08T20:05:34.944Z,2.77
2019-01-08T20:08:18.104Z,2.60
2019-01-08T20:11:03.285Z,2.97
2019-01-08T20:13:47.552Z,3.37
2019-01-08T20:16:30.507Z,4.67
2019-01-08T20:19:12.894Z,2.80
2019-01-08T20:21:55.685Z,2.37
2019-01-08T20:24:38.414Z,1.77
2019-01-08T20:27:22.968Z,1.50
2019-01-08T20:30:05.616Z,2.03
2019-01-08T20:32:48.410Z,2.43
2019-01-08T20:35:31.407Z,1.90
2019-01-08T20:38:13.967Z,1.20
2019-01-08T20:40:54.699Z,2.67
2019-01-08T20:44:14.320Z,2.37
2019-01-08T20:46:54.778Z,1.30
2019-01-08T20:49:38.260Z,8.60
2019-01-08T20:52:21.290Z,2.83
2019-01-08T20:55:03.817Z,4.90
2019-01-08T20:57:50.494Z,1.90
2019-01-08T21:00:32.496Z,1.83
2019-01-08T21:03:14.757Z,2.67
2019-01-08T21:09:12.162Z,1.80
2019-01-08T21:11:54.878Z,3.40
2019-01-08T21:17:50.667Z,2.17
2019-01-08T21:20:33.044Z,2.77
2019-01-08T21:23:16.220Z,1.57
2019-01-08T21:26:24.804Z,2.53
2019-01-08T21:29:06.466Z,1.43
2019-01-08T21:35:16.370Z,2.07
2019-01-08T21:37:58.245Z,1.20
2019-01-08T21:40:40.634Z,1.20
2019-01-08T21:43:24.996Z,2.00
2019-01-08T21:46:07.490Z,2.73
2019-01-08T21:48:49.397Z,1.73
2019-01-08T21:51:31.715Z,1.70
2019-01-08T21:54:13.867Z,1.60
2019-01-08T21:56:56.230Z,4.20
2019-01-08T21:59:37.977Z,2.17
2019-01-08T22:02:20.101Z,2.40
2019-01-08T22:05:02.836Z,4.53
2019-01-08T22:07:44.813Z,2.53
2019-01-08T22:10:27.062Z,3.03
2019-01-08T22:13:09.324Z,6.90
2019-01-08T22:15:51.653Z,2.20
2019-01-08T22:18:33.211Z,5.90
2019-01-08T22:21:15.497Z,3.47
2019-01-08T22:23:58.827Z,2.17
2019-01-08T22:26:41.134Z,3.30
2019-01-08T22:29:30.675Z,2.10
2019-01-08T22:32:20.221Z,3.60
2019-01-08T22:35:02.917Z,2.40
2019-01-08T22:37:45.350Z,8.33
2019-01-08T22:44:02.276Z,2.87
2019-01-08T22:46:44.446Z,3.83
2019-01-08T22:49:26.570Z,4.53
2019-01-08T22:52:08.670Z,3.97
2019-01-08T22:54:53.093Z,3.87
2019-01-08T22:57:35.791Z,2.30
2019-01-08T23:00:38.756Z,2.40
2019-01-08T23:03:21.749Z,2.30
2019-01-08T23:06:04.409Z,4.80
2019-01-08T23:08:46.373Z,3.10
2019-01-08T23:11:28.126Z,4.13
2019-01-08T23:14:10.275Z,4.60
2019-01-08T23:16:52.778Z,3.13
2019-01-08T23:19:35.212Z,6.07
2019-01-08T23:22:17.351Z,1.33
2019-01-08T23:25:00.761Z,4.33
2019-01-08T23:27:41.359Z,3.30
2019-01-08T23:30:23.718Z,3.40
2019-01-08T23:33:13.304Z,4.67
2019-01-08T23:35:53.800Z,1.17
2019-01-08T23:38:36.127Z,2.80
2019-01-08T23:44:26.272Z,1.10
2019-01-08T23:47:08.416Z,2.40
2019-01-08T23:49:57.955Z,2.27
2019-01-08T23:53:07.183Z,2.13
2019-01-08T23:55:50.944Z,5.30
2019-01-08T23:58:32.725Z,2.67
